Portada
METAR-TAF:

METAR-TAF

Aeroports :

São Pedro da Aldeia, Rio de Janeiro, Brasil

latitud: 22-49S, longitud: 042-06W, altitud: 10 m

Observació

L'informe es va fer fa 34 minuts, a les 11:00 UTC
Vent 4 kt del Est/Nord-Est, variant entre Nord/Nord-Est i Est
Temperatura 23°C
Humitat 83%
Pressió 1017 hPa
Visibilitat 10 km o més
Escasses núvols a una alçada de 1300 ft
Núvols disperses a una alçada de 3000 ft
Cel ennuvolat a una alçada de 7000 ft

METAR: SBES 181100Z 06004KT 020V080 9999 FEW013 SCT030 BKN070 23/20 Q1017

Hora: 09:34 (11:34 UTC)


TAF: manca

Observacions i pronòstics meteorològics de més de 4000 aeroports (METAR i TAF).

Les estacions disponibles són els punts grocs i vermells al mapa.

Posi el ratolí al punt desitjat per veure el nom de l'estació.

Feu clic per veure les observacions i els pronòstics meteorològics.

Per canviar el mapa: feu clic els botons verds amb una creu de color negre per apropar; al botó verd amb un guió per allunyar la imatge; o en les fletxes verdes per a mapes adjacents.


METAR-TAF: